createdAt,value
2022-12-26T00:00:27.785Z,97956.50
2022-12-26T00:02:54.427Z,97955.16
2022-12-26T00:05:21.158Z,97951.66
2022-12-26T00:07:47.931Z,97955.25
2022-12-26T00:10:14.541Z,97955.16
2022-12-26T00:12:41.658Z,97963.78
2022-12-26T00:15:08.853Z,97961.88
2022-12-26T00:17:35.468Z,97962.34
2022-12-26T00:20:02.357Z,97968.44
2022-12-26T00:22:29.057Z,97968.59
2022-12-26T00:24:55.729Z,97983.03
2022-12-26T00:27:22.354Z,97971.66
2022-12-26T00:29:49.084Z,97972.31
2022-12-26T00:32:15.731Z,97969.06
2022-12-26T00:34:42.394Z,97960.44
2022-12-26T00:37:09.017Z,97965.56
2022-12-26T00:39:35.496Z,97964.28
2022-12-26T00:42:02.463Z,97991.91
2022-12-26T00:44:29.084Z,98000.81
2022-12-26T00:46:55.730Z,97994.09
2022-12-26T00:49:22.424Z,97997.09
2022-12-26T00:51:49.086Z,97981.97
2022-12-26T00:54:15.579Z,97966.09
2022-12-26T00:56:42.215Z,97971.03
2022-12-26T00:59:08.813Z,97966.47
2022-12-26T01:01:35.640Z,97962.03
2022-12-26T01:04:02.353Z,97970.56
2022-12-26T01:06:29.785Z,97960.69
2022-12-26T01:08:56.570Z,97970.97
2022-12-26T01:11:41.567Z,97967.75
2022-12-26T01:14:11.580Z,97959.94
2022-12-26T01:16:39.828Z,97960.66
2022-12-26T01:19:07.014Z,97966.91
2022-12-26T01:21:34.155Z,97955.25
2022-12-26T01:24:01.018Z,97954.19
2022-12-26T01:26:27.683Z,97955.84
2022-12-26T01:28:54.889Z,97949.72
2022-12-26T01:31:23.008Z,97947.22
2022-12-26T01:33:50.563Z,97957.09
2022-12-26T01:36:18.269Z,97955.38
2022-12-26T01:38:45.379Z,97963.34
2022-12-26T01:41:21.904Z,97961.16
2022-12-26T01:43:55.115Z,97961.69
2022-12-26T01:46:29.646Z,97960.09
2022-12-26T01:49:06.469Z,97966.34
2022-12-26T01:51:38.986Z,97981.25
2022-12-26T01:54:39.246Z,97976.81
2022-12-26T01:56:58.185Z,97971.53
2022-12-26T01:59:28.812Z,97982.94
2022-12-26T02:01:56.052Z,97971.41
2022-12-26T02:04:51.398Z,97968.88
2022-12-26T02:07:18.286Z,97971.38
2022-12-26T02:09:44.994Z,97965.28
2022-12-26T02:12:37.560Z,97962.00
2022-12-26T02:15:03.969Z,97961.03
2022-12-26T02:17:30.980Z,97952.63
2022-12-26T02:20:33.343Z,97949.13
2022-12-26T02:23:18.297Z,97938.81
2022-12-26T02:26:06.365Z,97934.69
2022-12-26T02:29:03.919Z,97935.53
2022-12-26T02:31:42.061Z,97936.72
2022-12-26T02:34:39.251Z,97945.38
2022-12-26T02:37:30.549Z,97939.38
2022-12-26T02:40:13.803Z,97938.53
2022-12-26T02:43:02.768Z,97945.38
2022-12-26T02:45:58.306Z,97943.25
2022-12-26T02:48:28.188Z,97931.09
2022-12-26T02:51:29.991Z,97937.44
2022-12-26T02:54:21.476Z,97941.00
2022-12-26T02:57:22.016Z,97930.28
2022-12-26T03:00:16.381Z,97930.28
2022-12-26T03:03:17.560Z,97927.88
2022-12-26T03:06:09.470Z,97928.25
2022-12-26T03:09:17.162Z,97927.44
2022-12-26T03:12:08.811Z,97917.22
2022-12-26T03:14:45.603Z,97939.25
2022-12-26T03:17:21.847Z,97933.72
2022-12-26T03:20:01.260Z,97930.41
2022-12-26T03:22:48.426Z,97937.91
2022-12-26T03:25:40.461Z,97928.56
2022-12-26T03:28:07.347Z,97924.66
2022-12-26T03:30:49.502Z,97918.06
2022-12-26T03:33:46.311Z,97918.56
2022-12-26T03:36:29.072Z,97921.72
2022-12-26T03:39:45.426Z,97912.25
2022-12-26T03:43:01.684Z,97917.91
2022-12-26T03:46:07.222Z,97915.91
2022-12-26T03:49:30.421Z,97919.47
2022-12-26T03:52:22.529Z,97919.34
2022-12-26T03:55:32.690Z,97921.34
2022-12-26T03:58:27.664Z,97923.78
2022-12-26T04:01:15.117Z,97919.22
2022-12-26T04:04:03.023Z,97914.50
2022-12-26T04:06:57.126Z,97926.59
2022-12-26T04:09:53.577Z,97931.19
2022-12-26T04:12:43.326Z,97919.28
2022-12-26T04:15:46.920Z,97909.22
2022-12-26T04:18:39.823Z,97908.25
2022-12-26T04:21:32.368Z,97908.13
2022-12-26T04:24:46.962Z,97898.25
2022-12-26T04:27:35.777Z,97897.16
2022-12-26T04:30:21.090Z,97892.59
2022-12-26T04:33:09.037Z,97897.03
2022-12-26T04:36:09.122Z,97897.75
2022-12-26T04:39:02.458Z,97883.66
2022-12-26T04:41:51.908Z,97893.69
2022-12-26T04:44:23.174Z,97911.47
2022-12-26T04:46:52.985Z,97915.72
2022-12-26T04:49:38.865Z,97916.25
2022-12-26T04:52:09.295Z,97918.66
2022-12-26T04:54:36.035Z,97917.72
2022-12-26T04:57:03.022Z,97925.38
2022-12-26T04:59:29.675Z,97935.38
2022-12-26T05:02:14.908Z,97937.50
2022-12-26T05:05:00.397Z,97940.88
2022-12-26T05:07:54.530Z,97940.16
2022-12-26T05:10:27.248Z,97947.31
2022-12-26T05:12:54.425Z,97940.94
2022-12-26T05:15:21.735Z,97937.38
2022-12-26T05:18:07.059Z,97930.06
2022-12-26T05:20:39.729Z,97941.84
2022-12-26T05:23:29.249Z,97944.44
2022-12-26T05:26:14.450Z,97948.44
2022-12-26T05:28:44.051Z,97948.75
2022-12-26T05:31:16.236Z,97942.75
2022-12-26T05:34:02.072Z,97943.22
2022-12-26T05:36:42.065Z,97946.69
2022-12-26T05:39:09.626Z,97937.59
2022-12-26T05:41:37.695Z,97940.03
2022-12-26T05:44:05.082Z,97948.25
2022-12-26T05:46:31.846Z,97943.59
2022-12-26T05:48:58.635Z,97936.34
2022-12-26T05:51:25.739Z,97915.84
2022-12-26T05:53:52.572Z,97928.03
2022-12-26T05:56:20.314Z,97934.84
2022-12-26T05:58:47.561Z,97932.06
2022-12-26T06:01:15.502Z,97938.00
2022-12-26T06:03:43.739Z,97939.91
2022-12-26T06:06:11.041Z,97941.91
2022-12-26T06:08:38.739Z,97950.31
2022-12-26T06:11:06.659Z,97957.75
2022-12-26T06:13:34.593Z,97945.81
2022-12-26T06:16:09.230Z,97957.53
2022-12-26T06:18:36.291Z,97960.00
2022-12-26T06:21:21.708Z,97952.34
2022-12-26T06:23:49.859Z,97944.81
2022-12-26T06:26:17.796Z,97951.13
2022-12-26T06:28:45.019Z,97941.19
2022-12-26T06:31:18.489Z,97943.31
2022-12-26T06:33:45.586Z,97940.06
2022-12-26T06:36:14.843Z,97925.34
2022-12-26T06:38:43.862Z,97935.31
2022-12-26T06:41:13.429Z,97937.53
2022-12-26T06:43:42.631Z,97927.22
2022-12-26T06:46:13.231Z,97928.47
2022-12-26T06:48:40.654Z,97916.31
2022-12-26T06:51:11.623Z,97930.56
2022-12-26T06:53:39.152Z,97937.56
2022-12-26T06:56:14.161Z,97930.88
2022-12-26T06:58:41.768Z,97932.97
2022-12-26T07:01:11.573Z,97939.50
2022-12-26T07:03:42.002Z,97937.00
2022-12-26T07:06:24.104Z,97938.28
2022-12-26T07:08:52.479Z,97936.34
2022-12-26T07:11:22.680Z,97946.56
2022-12-26T07:13:49.325Z,97942.19
2022-12-26T07:16:15.982Z,97945.81
2022-12-26T07:18:43.218Z,97937.63
2022-12-26T07:21:13.327Z,97936.06
2022-12-26T07:23:40.611Z,97927.78
2022-12-26T07:26:07.923Z,97916.72
2022-12-26T07:28:35.099Z,97908.94
2022-12-26T07:31:02.507Z,97906.53
2022-12-26T07:33:29.901Z,97890.34
2022-12-26T07:36:01.367Z,97894.53
2022-12-26T07:38:28.134Z,97894.50
2022-12-26T07:40:56.480Z,97902.28
2022-12-26T07:43:23.862Z,97911.28
2022-12-26T07:45:51.147Z,97903.75
2022-12-26T07:48:18.432Z,97898.84
2022-12-26T07:50:50.071Z,97880.56
2022-12-26T07:53:17.055Z,97904.19
2022-12-26T07:55:43.757Z,97913.81
2022-12-26T07:58:10.697Z,97910.59
2022-12-26T08:00:37.535Z,97914.81
2022-12-26T08:03:07.748Z,97915.03
2022-12-26T08:05:35.101Z,97919.69
2022-12-26T08:08:01.829Z,97928.22
2022-12-26T08:10:28.589Z,97933.03
2022-12-26T08:12:55.196Z,97916.16
2022-12-26T08:15:21.843Z,97921.75
2022-12-26T08:17:48.469Z,97918.38
2022-12-26T08:20:15.172Z,97929.84
2022-12-26T08:22:41.924Z,97919.09
2022-12-26T08:25:09.314Z,97920.63
2022-12-26T08:27:36.121Z,97918.00
2022-12-26T08:30:03.351Z,97922.63
2022-12-26T08:32:29.960Z,97927.25
2022-12-26T08:34:57.099Z,97929.06
2022-12-26T08:37:26.708Z,97931.25
2022-12-26T08:39:53.651Z,97934.75
2022-12-26T08:42:23.301Z,97949.91
2022-12-26T08:44:49.981Z,97942.06
2022-12-26T08:47:16.609Z,97947.53
2022-12-26T08:49:43.685Z,97953.13
2022-12-26T08:52:10.985Z,97956.16
2022-12-26T08:54:38.243Z,97973.81
2022-12-26T08:57:04.918Z,97974.75
2022-12-26T08:59:31.568Z,97979.19
2022-12-26T09:01:58.724Z,97962.66
2022-12-26T09:04:25.423Z,97965.28
2022-12-26T09:06:52.085Z,97962.22
2022-12-26T09:09:18.831Z,97953.97
2022-12-26T09:11:45.527Z,97959.00
2022-12-26T09:14:12.538Z,97962.22
2022-12-26T09:16:50.471Z,97964.19
2022-12-26T09:19:18.988Z,97974.91
2022-12-26T09:21:46.004Z,97980.78
2022-12-26T09:24:14.938Z,97977.06
2022-12-26T09:26:41.882Z,97987.44
2022-12-26T09:29:11.762Z,97986.75
2022-12-26T09:31:38.530Z,97986.34
2022-12-26T09:34:06.579Z,97992.91
2022-12-26T09:36:38.192Z,97974.28
2022-12-26T09:39:05.901Z,97971.75
2022-12-26T09:41:35.365Z,97967.16
2022-12-26T09:44:23.534Z,97967.16
2022-12-26T09:46:53.240Z,97965.19
2022-12-26T09:49:37.500Z,97966.00
2022-12-26T09:52:14.022Z,97967.44
2022-12-26T09:54:44.913Z,97966.88
2022-12-26T09:57:31.447Z,97975.78
2022-12-26T10:00:01.649Z,97971.44
2022-12-26T10:02:28.765Z,97979.19
2022-12-26T10:04:55.810Z,97981.72
2022-12-26T10:07:31.544Z,97977.03
2022-12-26T10:10:13.428Z,97971.28
2022-12-26T10:12:52.259Z,97970.25
2022-12-26T10:15:40.968Z,97964.28
2022-12-26T10:18:19.680Z,97966.06
2022-12-26T10:21:10.073Z,97972.28
2022-12-26T10:23:47.555Z,97967.56
2022-12-26T10:26:20.263Z,97964.28
2022-12-26T10:28:53.743Z,97968.03
2022-12-26T10:31:47.423Z,97972.56
2022-12-26T10:34:25.277Z,97974.59
2022-12-26T10:37:24.326Z,97980.38
2022-12-26T10:39:59.383Z,97974.06
2022-12-26T10:42:46.504Z,97963.69
2022-12-26T10:45:26.855Z,97962.88
2022-12-26T10:47:54.761Z,97965.34
2022-12-26T10:50:27.958Z,97973.06
2022-12-26T10:52:55.966Z,97966.13
2022-12-26T10:55:35.390Z,97960.25
2022-12-26T10:58:34.312Z,97957.44
2022-12-26T11:01:29.333Z,97967.19
2022-12-26T11:03:58.449Z,97964.53
2022-12-26T11:06:34.388Z,97967.31
2022-12-26T11:09:01.271Z,97954.81
2022-12-26T11:11:46.037Z,97964.22
2022-12-26T11:14:45.451Z,97960.91
2022-12-26T11:17:23.752Z,97964.75
2022-12-26T11:20:08.578Z,97949.09
2022-12-26T11:22:35.373Z,97944.50
2022-12-26T11:25:07.995Z,97946.66
2022-12-26T11:27:35.126Z,97951.34
2022-12-26T11:30:14.049Z,97951.91
2022-12-26T11:32:42.123Z,97948.81
2022-12-26T11:35:28.382Z,97945.03
2022-12-26T11:37:57.163Z,97941.97
2022-12-26T11:41:06.470Z,97943.78
2022-12-26T11:43:33.595Z,97946.88
2022-12-26T11:46:00.293Z,97941.66
2022-12-26T11:48:27.633Z,97944.00
2022-12-26T11:50:54.711Z,97941.06
2022-12-26T11:53:23.183Z,97935.03
2022-12-26T11:56:05.270Z,97947.28
2022-12-26T11:58:33.315Z,97934.59
2022-12-26T12:00:59.871Z,97940.72
2022-12-26T12:03:43.713Z,97942.50
2022-12-26T12:06:25.779Z,97940.31
2022-12-26T12:09:13.363Z,97933.50
2022-12-26T12:11:45.921Z,97935.09
2022-12-26T12:14:16.687Z,97930.94
2022-12-26T12:16:46.192Z,97928.41
2022-12-26T12:19:31.071Z,97925.38
2022-12-26T12:21:57.679Z,97932.53
2022-12-26T12:24:35.614Z,97944.91
2022-12-26T12:27:11.622Z,97944.13
2022-12-26T12:30:03.139Z,97945.34
2022-12-26T12:32:53.476Z,97959.97
2022-12-26T12:35:29.342Z,97959.22
2022-12-26T12:38:32.859Z,97951.91
2022-12-26T12:41:05.371Z,97935.06
2022-12-26T12:43:42.105Z,97955.47
2022-12-26T12:46:23.076Z,97958.47
2022-12-26T12:49:25.062Z,97954.97
2022-12-26T12:52:29.472Z,97943.06
2022-12-26T12:55:24.061Z,97932.28
2022-12-26T12:57:59.801Z,97932.16
2022-12-26T13:00:31.140Z,97922.75
2022-12-26T13:03:22.536Z,97925.88
2022-12-26T13:05:59.817Z,97921.09
2022-12-26T13:08:37.424Z,97908.06
2022-12-26T13:11:10.934Z,97918.13
2022-12-26T13:13:47.346Z,97928.34
2022-12-26T13:16:24.292Z,97935.06
2022-12-26T13:18:53.167Z,97925.59
2022-12-26T13:21:22.058Z,97922.63
2022-12-26T13:24:12.058Z,97932.84
2022-12-26T13:26:43.661Z,97930.06
2022-12-26T13:29:19.295Z,97924.47
2022-12-26T13:31:46.971Z,97934.97
2022-12-26T13:34:18.985Z,97929.91
2022-12-26T13:36:48.413Z,97936.34
2022-12-26T13:39:27.070Z,97941.38
2022-12-26T13:42:35.653Z,97931.88
2022-12-26T13:45:40.240Z,97896.47
2022-12-26T13:48:16.304Z,97856.44
2022-12-26T13:50:55.223Z,97824.94
2022-12-26T13:53:25.366Z,97853.75
2022-12-26T13:56:01.025Z,97904.44
2022-12-26T13:58:34.569Z,97923.97
2022-12-26T14:01:24.891Z,97927.75
2022-12-26T14:04:02.615Z,97963.47
2022-12-26T14:06:32.363Z,97937.81
2022-12-26T14:09:06.460Z,97921.88
2022-12-26T14:11:42.438Z,97914.50
2022-12-26T14:14:37.182Z,97922.06
2022-12-26T14:17:25.307Z,97958.94
2022-12-26T14:20:23.440Z,97952.50
2022-12-26T14:23:20.345Z,97950.41
2022-12-26T14:26:13.104Z,97965.28
2022-12-26T14:28:42.775Z,97969.06
2022-12-26T14:31:22.188Z,97964.16
2022-12-26T14:33:58.737Z,97969.50
2022-12-26T14:36:40.668Z,97983.34
2022-12-26T14:39:35.777Z,97974.44
2022-12-26T14:42:27.225Z,97987.13
2022-12-26T14:44:59.557Z,97975.38
2022-12-26T14:47:38.530Z,97979.34
2022-12-26T14:50:43.446Z,97990.72
2022-12-26T14:53:28.551Z,97982.44
2022-12-26T14:55:57.438Z,98004.78
2022-12-26T14:58:48.625Z,97995.22
2022-12-26T15:01:18.885Z,98001.97
2022-12-26T15:04:19.027Z,97997.97
2022-12-26T15:06:58.562Z,97983.69
2022-12-26T15:10:02.741Z,97971.00
2022-12-26T15:13:07.606Z,97986.50
2022-12-26T15:15:47.667Z,97992.97
2022-12-26T15:18:27.212Z,98002.28
2022-12-26T15:20:59.931Z,97998.94
2022-12-26T15:23:45.769Z,98003.69
2022-12-26T15:26:24.614Z,98005.59
2022-12-26T15:29:03.602Z,98005.50
2022-12-26T15:31:46.483Z,98010.84
2022-12-26T15:34:31.075Z,98023.78
2022-12-26T15:37:06.645Z,98029.19
2022-12-26T15:39:48.991Z,98011.69
2022-12-26T15:42:31.325Z,98027.91
2022-12-26T15:45:32.816Z,98011.75
2022-12-26T15:48:12.558Z,98006.63
2022-12-26T15:50:51.562Z,98010.31
2022-12-26T15:53:29.454Z,98006.31
2022-12-26T15:56:10.223Z,98004.81
2022-12-26T15:58:45.530Z,98027.16
2022-12-26T16:01:12.984Z,98023.88
2022-12-26T16:03:56.732Z,98020.22
2022-12-26T16:06:48.350Z,98028.84
2022-12-26T16:09:28.050Z,98020.94
2022-12-26T16:11:57.422Z,98019.25
2022-12-26T16:14:31.953Z,98009.09
2022-12-26T16:17:21.007Z,98003.84
2022-12-26T16:19:50.691Z,98019.09
2022-12-26T16:22:48.875Z,98005.66
2022-12-26T16:25:22.253Z,98019.63
2022-12-26T16:27:51.620Z,98023.31
2022-12-26T16:30:23.815Z,98024.94
2022-12-26T16:32:51.724Z,98017.06
2022-12-26T16:35:20.383Z,98014.56
2022-12-26T16:37:50.075Z,98009.59
2022-12-26T16:40:30.765Z,98009.44
2022-12-26T16:43:01.782Z,98021.31
2022-12-26T16:45:32.169Z,98020.44
2022-12-26T16:47:59.855Z,98014.59
2022-12-26T16:50:29.321Z,98015.19
2022-12-26T16:53:30.445Z,98015.41
2022-12-26T16:56:14.460Z,98026.88
2022-12-26T16:58:41.659Z,98015.81
2022-12-26T17:01:12.374Z,98008.44
2022-12-26T17:03:59.536Z,98012.66
2022-12-26T17:06:33.120Z,98014.69
2022-12-26T17:09:08.599Z,98019.31
2022-12-26T17:11:39.936Z,98018.88
2022-12-26T17:14:17.694Z,98026.25
2022-12-26T17:16:44.739Z,98026.44
2022-12-26T17:19:18.847Z,98023.19
2022-12-26T17:22:22.895Z,98032.84
2022-12-26T17:24:51.685Z,98025.09
2022-12-26T17:27:23.411Z,98036.00
2022-12-26T17:29:57.150Z,98034.16
2022-12-26T17:32:35.265Z,98033.78
2022-12-26T17:35:27.419Z,98026.78
2022-12-26T17:38:01.354Z,98041.47
2022-12-26T17:40:34.176Z,98038.69
2022-12-26T17:43:12.881Z,98035.97
2022-12-26T17:45:46.637Z,98036.13
2022-12-26T17:48:14.473Z,98033.66
2022-12-26T17:50:44.920Z,98021.06
2022-12-26T17:53:31.536Z,98013.50
2022-12-26T17:56:01.702Z,98031.25
2022-12-26T17:58:29.613Z,98031.97
2022-12-26T18:00:56.804Z,98027.38
2022-12-26T18:03:23.530Z,98029.28
2022-12-26T18:05:50.539Z,98043.13
2022-12-26T18:08:29.142Z,98030.84
2022-12-26T18:10:55.955Z,98018.81
2022-12-26T18:13:22.636Z,98029.84
2022-12-26T18:15:50.289Z,98027.06
2022-12-26T18:18:41.355Z,98011.00
2022-12-26T18:21:10.723Z,98014.03
2022-12-26T18:23:37.708Z,98017.97
2022-12-26T18:26:08.076Z,98008.38
2022-12-26T18:28:35.698Z,97999.41
2022-12-26T18:31:02.355Z,98008.34
2022-12-26T18:33:29.083Z,98001.13
2022-12-26T18:35:56.450Z,97989.53
2022-12-26T18:38:23.148Z,97990.97
2022-12-26T18:40:54.826Z,97994.63
2022-12-26T18:43:21.565Z,97993.59
2022-12-26T18:45:48.317Z,97974.78
2022-12-26T18:48:16.636Z,97981.59
2022-12-26T18:50:45.079Z,97993.41
2022-12-26T18:53:12.587Z,97987.78
2022-12-26T18:55:40.968Z,97989.34
2022-12-26T18:58:07.795Z,97992.06
2022-12-26T19:00:36.339Z,97985.59
2022-12-26T19:03:03.275Z,97982.66
